JIA5846 KPHL-KRIC
Flight info
| Callsign | JIA5846 |
|---|---|
| Flight time | 0h 35m |
| Altitude | 20000 |
| Route | OOD TEBEE HAYDO GROUT/N0323F160 T315 SHLBK/N0296F100 T315 COLIN |
| Aircraft | CRJ7/M-SDFGIRWY/S |
Departure
| Time | 2026-04-21 17:51 |
|---|---|
| Airport | Philadelphia International Airport (KPHL) |
Arrival
| Time | 2026-04-21 18:26 |
|---|---|
| Airport | Richmond International Airport (KRIC) |
| Time | Latitude | Longitude | Altitude | Speed | Heading |
|---|---|---|---|---|---|
| 2026-04-21 17:37 | 39.87643 | -75.23855 | 24 ft | 0 kts | 226° |
| 2026-04-21 17:41 | 39.87652 | -75.23843 | 24 ft | 2 kts | 221° |
| 2026-04-21 17:41 | 39.87663 | -75.23832 | 24 ft | 2 kts | 216° |
| 2026-04-21 17:41 | 39.87678 | -75.23823 | 24 ft | 2 kts | 192° |
| 2026-04-21 17:42 | 39.87692 | -75.23824 | 25 ft | 2 kts | 159° |
| 2026-04-21 17:42 | 39.87705 | -75.23836 | 26 ft | 2 kts | 130° |
| 2026-04-21 17:42 | 39.87708 | -75.23841 | 27 ft | 0 kts | 125° |
| 2026-04-21 17:43 | 39.87702 | -75.23829 | 25 ft | 7 kts | 121° |
| 2026-04-21 17:43 | 39.87673 | -75.23768 | 24 ft | 9 kts | 122° |
| 2026-04-21 17:43 | 39.87635 | -75.23691 | 24 ft | 11 kts | 122° |
| 2026-04-21 17:44 | 39.87591 | -75.23614 | 24 ft | 7 kts | 147° |
| 2026-04-21 17:44 | 39.87569 | -75.23606 | 25 ft | 4 kts | 177° |
| 2026-04-21 17:44 | 39.87522 | -75.23619 | 24 ft | 8 kts | 210° |
| 2026-04-21 17:44 | 39.87474 | -75.23676 | 24 ft | 12 kts | 225° |
| 2026-04-21 17:45 | 39.87427 | -75.23725 | 24 ft | 2 kts | 185° |
| 2026-04-21 17:45 | 39.87390 | -75.23717 | 24 ft | 8 kts | 173° |
| 2026-04-21 17:45 | 39.87332 | -75.23730 | 24 ft | 9 kts | 182° |
| 2026-04-21 17:45 | 39.87260 | -75.23710 | 24 ft | 12 kts | 166° |
| 2026-04-21 17:46 | 39.87174 | -75.23681 | 24 ft | 14 kts | 166° |
| 2026-04-21 17:46 | 39.87115 | -75.23646 | 24 ft | 2 kts | 113° |
| 2026-04-21 17:46 | 39.87123 | -75.23582 | 24 ft | 13 kts | 75° |
| 2026-04-21 17:46 | 39.87138 | -75.23488 | 24 ft | 1 kts | 109° |
| 2026-04-21 17:47 | 39.87132 | -75.23480 | 24 ft | 4 kts | 142° |
| 2026-04-21 17:47 | 39.87088 | -75.23456 | 24 ft | 2 kts | 165° |
| 2026-04-21 17:47 | 39.87087 | -75.23456 | 26 ft | 0 kts | 165° |
| 2026-04-21 17:48 | 39.87064 | -75.23448 | 25 ft | 10 kts | 165° |
| 2026-04-21 17:49 | 39.87009 | -75.23448 | 24 ft | 0 kts | 194° |
| 2026-04-21 17:49 | 39.86972 | -75.23429 | 24 ft | 16 kts | 146° |
| 2026-04-21 17:49 | 39.86906 | -75.23419 | 24 ft | 4 kts | 221° |
| 2026-04-21 17:49 | 39.86889 | -75.23473 | 24 ft | 10 kts | 255° |
| 2026-04-21 17:50 | 39.86870 | -75.23572 | 26 ft | 12 kts | 256° |
| 2026-04-21 17:50 | 39.86848 | -75.23684 | 24 ft | 14 kts | 256° |
| 2026-04-21 17:50 | 39.86838 | -75.23731 | 25 ft | 0 kts | 254° |
| 2026-04-21 17:50 | 39.86819 | -75.23828 | 24 ft | 41 kts | 255° |
| 2026-04-21 17:51 | 39.86668 | -75.24562 | 26 ft | 123 kts | 255° |
| 2026-04-21 17:51 | 39.86456 | -75.25736 | 675 ft | 129 kts | 257° |
| 2026-04-21 17:51 | 39.86326 | -75.26942 | 1564 ft | 140 kts | 259° |
| 2026-04-21 17:51 | 39.86130 | -75.28273 | 2172 ft | 165 kts | 257° |
| 2026-04-21 17:52 | 39.85840 | -75.29805 | 2768 ft | 185 kts | 250° |
| 2026-04-21 17:52 | 39.85005 | -75.31168 | 3333 ft | 202 kts | 213° |
| 2026-04-21 17:52 | 39.83636 | -75.31614 | 4055 ft | 212 kts | 179° |
| 2026-04-21 17:52 | 39.82126 | -75.31489 | 4787 ft | 220 kts | 178° |
| 2026-04-21 17:53 | 39.80539 | -75.31373 | 5382 ft | 237 kts | 180° |
| 2026-04-21 17:53 | 39.78856 | -75.31338 | 5923 ft | 250 kts | 183° |
| 2026-04-21 17:53 | 39.77093 | -75.31401 | 6708 ft | 256 kts | 186° |
| 2026-04-21 17:53 | 39.75287 | -75.31512 | 7521 ft | 263 kts | 186° |
| 2026-04-21 17:54 | 39.73438 | -75.31613 | 8322 ft | 271 kts | 186° |
| 2026-04-21 17:54 | 39.71527 | -75.31706 | 9107 ft | 277 kts | 186° |
| 2026-04-21 17:54 | 39.69576 | -75.31795 | 9890 ft | 284 kts | 187° |
| 2026-04-21 17:54 | 39.67570 | -75.31897 | 10650 ft | 290 kts | 187° |
| 2026-04-21 17:55 | 39.65537 | -75.31992 | 11390 ft | 295 kts | 187° |
| 2026-04-21 17:55 | 39.63478 | -75.32087 | 12147 ft | 299 kts | 187° |
| 2026-04-21 17:55 | 39.61385 | -75.32185 | 12886 ft | 303 kts | 187° |
| 2026-04-21 17:55 | 39.59257 | -75.32284 | 13630 ft | 307 kts | 187° |
| 2026-04-21 17:56 | 39.57101 | -75.32383 | 14229 ft | 318 kts | 187° |
| 2026-04-21 17:56 | 39.54788 | -75.32496 | 14454 ft | 345 kts | 186° |
| 2026-04-21 17:56 | 39.52347 | -75.32608 | 14902 ft | 366 kts | 186° |
| 2026-04-21 17:56 | 39.49742 | -75.32782 | 15440 ft | 382 kts | 189° |
| 2026-04-21 17:57 | 39.47060 | -75.33196 | 16156 ft | 391 kts | 193° |
| 2026-04-21 17:57 | 39.44354 | -75.33747 | 17018 ft | 396 kts | 194° |
| 2026-04-21 17:57 | 39.41604 | -75.34311 | 17869 ft | 402 kts | 194° |
| 2026-04-21 17:57 | 39.38822 | -75.34869 | 18642 ft | 409 kts | 193° |
| 2026-04-21 17:58 | 39.35978 | -75.35391 | 19147 ft | 413 kts | 193° |
| 2026-04-21 17:58 | 39.33119 | -75.35910 | 19651 ft | 417 kts | 193° |
| 2026-04-21 17:58 | 39.30233 | -75.36437 | 20057 ft | 415 kts | 193° |
| 2026-04-21 17:58 | 39.27427 | -75.36943 | 20241 ft | 401 kts | 193° |
| 2026-04-21 17:59 | 39.24650 | -75.37446 | 20323 ft | 403 kts | 193° |
| 2026-04-21 17:59 | 39.21866 | -75.37955 | 20369 ft | 406 kts | 193° |
| 2026-04-21 17:59 | 39.19045 | -75.38456 | 20390 ft | 410 kts | 193° |
| 2026-04-21 17:59 | 39.16244 | -75.38943 | 20399 ft | 413 kts | 193° |
| 2026-04-21 18:00 | 39.13370 | -75.39453 | 20405 ft | 417 kts | 193° |
| 2026-04-21 18:00 | 39.10487 | -75.39974 | 20408 ft | 419 kts | 193° |
| 2026-04-21 18:00 | 39.07586 | -75.40498 | 20410 ft | 422 kts | 193° |
| 2026-04-21 18:00 | 39.04664 | -75.41038 | 20411 ft | 424 kts | 194° |
| 2026-04-21 18:01 | 39.01931 | -75.42248 | 20406 ft | 410 kts | 217° |
| 2026-04-21 18:01 | 38.99850 | -75.44592 | 20414 ft | 392 kts | 240° |
| 2026-04-21 18:01 | 38.98352 | -75.47437 | 20419 ft | 388 kts | 245° |
| 2026-04-21 18:01 | 38.96956 | -75.50422 | 20421 ft | 389 kts | 247° |
| 2026-04-21 18:02 | 38.96061 | -75.52416 | 20418 ft | 389 kts | 248° |
| 2026-04-21 18:02 | 38.94265 | -75.56483 | 20413 ft | 391 kts | 248° |
| 2026-04-21 18:02 | 38.92935 | -75.59506 | 20415 ft | 386 kts | 248° |
| 2026-04-21 18:02 | 38.91605 | -75.62482 | 20408 ft | 383 kts | 247° |
| 2026-04-21 18:03 | 38.90263 | -75.65427 | 20410 ft | 380 kts | 247° |
| 2026-04-21 18:03 | 38.88925 | -75.68347 | 20410 ft | 377 kts | 247° |
| 2026-04-21 18:03 | 38.87619 | -75.71207 | 20407 ft | 375 kts | 247° |
| 2026-04-21 18:03 | 38.86299 | -75.74084 | 20405 ft | 372 kts | 247° |
| 2026-04-21 18:04 | 38.84988 | -75.76946 | 20408 ft | 371 kts | 247° |
| 2026-04-21 18:04 | 38.83684 | -75.79789 | 20400 ft | 370 kts | 247° |
| 2026-04-21 18:04 | 38.82467 | -75.82435 | 20398 ft | 373 kts | 247° |
| 2026-04-21 18:04 | 38.81126 | -75.85364 | 20400 ft | 375 kts | 247° |
| 2026-04-21 18:05 | 38.79789 | -75.88267 | 20401 ft | 377 kts | 247° |
| 2026-04-21 18:05 | 38.78452 | -75.91171 | 20401 ft | 380 kts | 246° |
| 2026-04-21 18:05 | 38.77105 | -75.94093 | 20404 ft | 382 kts | 246° |
| 2026-04-21 18:05 | 38.75446 | -75.96760 | 20399 ft | 396 kts | 230° |
| 2026-04-21 18:06 | 38.73291 | -75.99011 | 20399 ft | 403 kts | 223° |
| 2026-04-21 18:06 | 38.70979 | -76.01088 | 20397 ft | 406 kts | 221° |
| 2026-04-21 18:06 | 38.68648 | -76.03142 | 20403 ft | 407 kts | 221° |
| 2026-04-21 18:06 | 38.66312 | -76.05207 | 20394 ft | 408 kts | 221° |
| 2026-04-21 18:07 | 38.64003 | -76.07326 | 20390 ft | 408 kts | 223° |
| 2026-04-21 18:07 | 38.61756 | -76.09533 | 20383 ft | 405 kts | 227° |
| 2026-04-21 18:07 | 38.59717 | -76.11992 | 20378 ft | 402 kts | 232° |
| 2026-04-21 18:07 | 38.57749 | -76.14540 | 20382 ft | 401 kts | 232° |
| 2026-04-21 18:08 | 38.55784 | -76.17063 | 20389 ft | 400 kts | 231° |
| 2026-04-21 18:08 | 38.53783 | -76.19532 | 20385 ft | 400 kts | 230° |
| 2026-04-21 18:08 | 38.51793 | -76.21948 | 20388 ft | 399 kts | 230° |
| 2026-04-21 18:08 | 38.49786 | -76.24390 | 20393 ft | 399 kts | 230° |
| 2026-04-21 18:09 | 38.47771 | -76.26840 | 20397 ft | 398 kts | 230° |
| 2026-04-21 18:09 | 38.45766 | -76.29273 | 20394 ft | 397 kts | 230° |
| 2026-04-21 18:09 | 38.44409 | -76.30914 | 20390 ft | 397 kts | 230° |
| 2026-04-21 18:09 | 38.41742 | -76.34112 | 20385 ft | 397 kts | 230° |
| 2026-04-21 18:10 | 38.39743 | -76.36521 | 20383 ft | 396 kts | 230° |
| 2026-04-21 18:10 | 38.37744 | -76.38940 | 20377 ft | 396 kts | 230° |
| 2026-04-21 18:10 | 38.35748 | -76.41358 | 20378 ft | 395 kts | 230° |
| 2026-04-21 18:10 | 38.34428 | -76.42957 | 20379 ft | 395 kts | 230° |
| 2026-04-21 18:11 | 38.32349 | -76.45261 | 20378 ft | 399 kts | 225° |
| 2026-04-21 18:11 | 38.30110 | -76.47378 | 20376 ft | 401 kts | 222° |
| 2026-04-21 18:11 | 38.27839 | -76.49440 | 20384 ft | 401 kts | 222° |
| 2026-04-21 18:11 | 38.25571 | -76.51504 | 20381 ft | 400 kts | 223° |
| 2026-04-21 18:12 | 38.23337 | -76.53614 | 20385 ft | 400 kts | 224° |
| 2026-04-21 18:12 | 38.21118 | -76.55743 | 20385 ft | 400 kts | 223° |
| 2026-04-21 18:12 | 38.18896 | -76.57874 | 20385 ft | 400 kts | 224° |
| 2026-04-21 18:12 | 38.16675 | -76.59994 | 20382 ft | 400 kts | 223° |
| 2026-04-21 18:13 | 38.14448 | -76.62119 | 20378 ft | 400 kts | 224° |
| 2026-04-21 18:13 | 38.12223 | -76.64246 | 20384 ft | 400 kts | 223° |
| 2026-04-21 18:13 | 38.10006 | -76.66408 | 20105 ft | 404 kts | 227° |
| 2026-04-21 18:13 | 38.08064 | -76.68929 | 19719 ft | 392 kts | 236° |
| 2026-04-21 18:14 | 38.04764 | -76.74097 | 18894 ft | 366 kts | 238° |
| 2026-04-21 18:14 | 38.03192 | -76.76556 | 18384 ft | 352 kts | 238° |
| 2026-04-21 18:14 | 38.01641 | -76.78891 | 17849 ft | 340 kts | 237° |
| 2026-04-21 18:15 | 38.00143 | -76.81120 | 17325 ft | 324 kts | 237° |
| 2026-04-21 18:15 | 37.98705 | -76.83255 | 16737 ft | 314 kts | 237° |
| 2026-04-21 18:15 | 37.97308 | -76.85329 | 16103 ft | 305 kts | 237° |
| 2026-04-21 18:15 | 37.95941 | -76.87326 | 15473 ft | 292 kts | 237° |
| 2026-04-21 18:16 | 37.94627 | -76.89232 | 14844 ft | 282 kts | 237° |
| 2026-04-21 18:16 | 37.93351 | -76.91074 | 14246 ft | 274 kts | 237° |
| 2026-04-21 18:16 | 37.92111 | -76.92882 | 13567 ft | 272 kts | 237° |
| 2026-04-21 18:16 | 37.90880 | -76.94696 | 12897 ft | 271 kts | 237° |
| 2026-04-21 18:17 | 37.89653 | -76.96510 | 12260 ft | 271 kts | 237° |
| 2026-04-21 18:17 | 37.88426 | -76.98318 | 11636 ft | 270 kts | 237° |
| 2026-04-21 18:17 | 37.87205 | -77.00119 | 11020 ft | 269 kts | 237° |
| 2026-04-21 18:17 | 37.85990 | -77.01906 | 10423 ft | 267 kts | 237° |
| 2026-04-21 18:18 | 37.84795 | -77.03672 | 9798 ft | 269 kts | 237° |
| 2026-04-21 18:18 | 37.83569 | -77.05494 | 9171 ft | 273 kts | 236° |
| 2026-04-21 18:18 | 37.82322 | -77.07372 | 8558 ft | 285 kts | 236° |
| 2026-04-21 18:18 | 37.81026 | -77.09318 | 7948 ft | 293 kts | 234° |
| 2026-04-21 18:19 | 37.79687 | -77.11289 | 7337 ft | 298 kts | 233° |
| 2026-04-21 18:19 | 37.78327 | -77.13288 | 6751 ft | 301 kts | 233° |
| 2026-04-21 18:19 | 37.76960 | -77.15293 | 6119 ft | 301 kts | 232° |
| 2026-04-21 18:19 | 37.75601 | -77.17290 | 5497 ft | 299 kts | 231° |
| 2026-04-21 18:20 | 37.74246 | -77.19270 | 4921 ft | 295 kts | 230° |
| 2026-04-21 18:20 | 37.72966 | -77.21139 | 4506 ft | 261 kts | 230° |
| 2026-04-21 18:20 | 37.71862 | -77.22757 | 4026 ft | 227 kts | 229° |
| 2026-04-21 18:20 | 37.70875 | -77.24186 | 3547 ft | 206 kts | 228° |
| 2026-04-21 18:21 | 37.69967 | -77.25501 | 3142 ft | 192 kts | 228° |
| 2026-04-21 18:21 | 37.69099 | -77.26714 | 2902 ft | 186 kts | 223° |
| 2026-04-21 18:21 | 37.67960 | -77.27583 | 2521 ft | 201 kts | 199° |
| 2026-04-21 18:21 | 37.66715 | -77.28029 | 2504 ft | 179 kts | 194° |
| 2026-04-21 18:22 | 37.65532 | -77.28373 | 2304 ft | 170 kts | 192° |
| 2026-04-21 18:22 | 37.64399 | -77.28634 | 2305 ft | 160 kts | 189° |
| 2026-04-21 18:22 | 37.63316 | -77.28900 | 2232 ft | 155 kts | 193° |
| 2026-04-21 18:22 | 37.62288 | -77.29246 | 2213 ft | 151 kts | 195° |
| 2026-04-21 18:23 | 37.61289 | -77.29595 | 2109 ft | 150 kts | 195° |
| 2026-04-21 18:23 | 37.60254 | -77.29883 | 1957 ft | 152 kts | 193° |
| 2026-04-21 18:23 | 37.59224 | -77.30171 | 1941 ft | 151 kts | 195° |
| 2026-04-21 18:23 | 37.58208 | -77.30485 | 1886 ft | 151 kts | 191° |
| 2026-04-21 18:24 | 37.57168 | -77.30771 | 1711 ft | 156 kts | 194° |
| 2026-04-21 18:24 | 37.56226 | -77.31064 | 1468 ft | 125 kts | 194° |
| 2026-04-21 18:24 | 37.55591 | -77.31273 | 1249 ft | 114 kts | 194° |
| 2026-04-21 18:24 | 37.54762 | -77.31538 | 1111 ft | 133 kts | 194° |
| 2026-04-21 18:25 | 37.53838 | -77.31782 | 864 ft | 137 kts | 192° |
| 2026-04-21 18:25 | 37.52940 | -77.32047 | 601 ft | 128 kts | 196° |
| 2026-04-21 18:25 | 37.52132 | -77.32300 | 328 ft | 111 kts | 194° |
| 2026-04-21 18:25 | 37.51411 | -77.32513 | 179 ft | 104 kts | 193° |
| 2026-04-21 18:26 | 37.50768 | -77.32702 | 169 ft | 75 kts | 194° |
| 2026-04-21 18:26 | 37.50537 | -77.32772 | 170 ft | 17 kts | 195° |
| 2026-04-21 18:26 | 37.50460 | -77.32832 | 171 ft | 7 kts | 264° |
| 2026-04-21 18:26 | 37.50469 | -77.32895 | 171 ft | 5 kts | 297° |
| 2026-04-21 18:27 | 37.50476 | -77.32908 | 171 ft | 1 kts | 316° |
| 2026-04-21 18:27 | 37.50511 | -77.32919 | 171 ft | 11 kts | 4° |
| 2026-04-21 18:27 | 37.50612 | -77.32890 | 170 ft | 18 kts | 13° |
| 2026-04-21 18:27 | 37.50746 | -77.32850 | 173 ft | 22 kts | 13° |
| 2026-04-21 18:28 | 37.50898 | -77.32805 | 171 ft | 20 kts | 13° |
| 2026-04-21 18:28 | 37.50956 | -77.32803 | 170 ft | 3 kts | 307° |
| 2026-04-21 18:28 | 37.50957 | -77.32847 | 169 ft | 11 kts | 251° |
| 2026-04-21 18:28 | 37.50925 | -77.32948 | 171 ft | 9 kts | 260° |
| 2026-04-21 18:29 | 37.50923 | -77.32966 | 171 ft | 0 kts | 261° |